sensor_id;sensor_type;location;lat;lon;timestamp;P1;durP1;ratioP1;P2;durP2;ratioP2
5939;SDS011;2995;-31.998;115.906;2022-09-24T00:00:27;6.50;;;0.97;;
5939;SDS011;2995;-31.998;115.906;2022-09-24T00:02:59;2.90;;;1.57;;
5939;SDS011;2995;-31.998;115.906;2022-09-24T00:05:30;2.43;;;1.20;;
5939;SDS011;2995;-31.998;115.906;2022-09-24T00:08:08;5.03;;;1.40;;
5939;SDS011;2995;-31.998;115.906;2022-09-24T00:10:39;3.03;;;1.10;;
5939;SDS011;2995;-31.998;115.906;2022-09-24T00:13:12;6.27;;;1.27;;
5939;SDS011;2995;-31.998;115.906;2022-09-24T00:15:45;5.67;;;1.40;;
5939;SDS011;2995;-31.998;115.906;2022-09-24T00:18:17;7.83;;;1.60;;
5939;SDS011;2995;-31.998;115.906;2022-09-24T00:20:48;4.00;;;1.40;;
5939;SDS011;2995;-31.998;115.906;2022-09-24T00:23:22;3.57;;;1.17;;
5939;SDS011;2995;-31.998;115.906;2022-09-24T00:25:53;2.47;;;0.93;;
5939;SDS011;2995;-31.998;115.906;2022-09-24T00:28:40;3.60;;;1.47;;
5939;SDS011;2995;-31.998;115.906;2022-09-24T00:31:11;4.77;;;1.20;;
5939;SDS011;2995;-31.998;115.906;2022-09-24T00:33:42;5.60;;;1.40;;
5939;SDS011;2995;-31.998;115.906;2022-09-24T00:36:17;6.33;;;1.60;;
5939;SDS011;2995;-31.998;115.906;2022-09-24T00:38:51;2.53;;;1.20;;
5939;SDS011;2995;-31.998;115.906;2022-09-24T00:41:24;5.70;;;1.67;;
5939;SDS011;2995;-31.998;115.906;2022-09-24T00:43:56;4.00;;;1.47;;
5939;SDS011;2995;-31.998;115.906;2022-09-24T00:46:28;3.40;;;1.67;;
5939;SDS011;2995;-31.998;115.906;2022-09-24T00:49:04;9.77;;;2.00;;
5939;SDS011;2995;-31.998;115.906;2022-09-24T00:51:40;6.67;;;1.93;;
5939;SDS011;2995;-31.998;115.906;2022-09-24T00:54:17;4.90;;;1.93;;
5939;SDS011;2995;-31.998;115.906;2022-09-24T00:56:50;3.80;;;1.27;;
5939;SDS011;2995;-31.998;115.906;2022-09-24T00:59:23;5.03;;;1.20;;
5939;SDS011;2995;-31.998;115.906;2022-09-24T01:01:55;2.27;;;1.23;;
5939;SDS011;2995;-31.998;115.906;2022-09-24T01:04:28;3.00;;;1.37;;
5939;SDS011;2995;-31.998;115.906;2022-09-24T01:06:59;5.57;;;1.67;;
5939;SDS011;2995;-31.998;115.906;2022-09-24T01:09:32;4.67;;;1.57;;
5939;SDS011;2995;-31.998;115.906;2022-09-24T01:12:05;5.47;;;1.30;;
5939;SDS011;2995;-31.998;115.906;2022-09-24T01:14:46;6.70;;;1.67;;
5939;SDS011;2995;-31.998;115.906;2022-09-24T01:17:28;5.07;;;1.50;;
5939;SDS011;2995;-31.998;115.906;2022-09-24T01:20:12;5.43;;;1.50;;
5939;SDS011;2995;-31.998;115.906;2022-09-24T01:23:11;4.50;;;1.60;;
5939;SDS011;2995;-31.998;115.906;2022-09-24T01:26:14;3.50;;;1.40;;
5939;SDS011;2995;-31.998;115.906;2022-09-24T01:29:03;4.50;;;1.30;;
5939;SDS011;2995;-31.998;115.906;2022-09-24T01:31:52;5.90;;;2.10;;
5939;SDS011;2995;-31.998;115.906;2022-09-24T01:34:33;6.33;;;1.70;;
5939;SDS011;2995;-31.998;115.906;2022-09-24T01:37:08;4.17;;;1.50;;
5939;SDS011;2995;-31.998;115.906;2022-09-24T01:39:41;3.50;;;1.40;;
5939;SDS011;2995;-31.998;115.906;2022-09-24T01:42:15;3.03;;;1.40;;
5939;SDS011;2995;-31.998;115.906;2022-09-24T01:44:49;7.13;;;2.93;;
5939;SDS011;2995;-31.998;115.906;2022-09-24T01:47:24;6.77;;;1.87;;
5939;SDS011;2995;-31.998;115.906;2022-09-24T01:50:05;8.20;;;2.00;;
5939;SDS011;2995;-31.998;115.906;2022-09-24T01:52:39;3.97;;;1.40;;
5939;SDS011;2995;-31.998;115.906;2022-09-24T01:55:14;6.90;;;1.43;;
5939;SDS011;2995;-31.998;115.906;2022-09-24T01:57:50;5.93;;;1.50;;
5939;SDS011;2995;-31.998;115.906;2022-09-24T02:00:27;6.20;;;1.63;;
5939;SDS011;2995;-31.998;115.906;2022-09-24T02:02:59;6.93;;;1.93;;
5939;SDS011;2995;-31.998;115.906;2022-09-24T02:05:37;7.77;;;1.70;;
5939;SDS011;2995;-31.998;115.906;2022-09-24T02:08:11;8.93;;;2.13;;
5939;SDS011;2995;-31.998;115.906;2022-09-24T02:10:48;8.47;;;1.80;;
5939;SDS011;2995;-31.998;115.906;2022-09-24T02:13:24;9.73;;;2.10;;
5939;SDS011;2995;-31.998;115.906;2022-09-24T02:16:00;5.97;;;1.40;;
5939;SDS011;2995;-31.998;115.906;2022-09-24T02:18:33;8.80;;;1.93;;
5939;SDS011;2995;-31.998;115.906;2022-09-24T02:21:08;3.63;;;1.33;;
5939;SDS011;2995;-31.998;115.906;2022-09-24T02:23:43;5.30;;;1.30;;
5939;SDS011;2995;-31.998;115.906;2022-09-24T02:26:19;3.83;;;1.40;;
5939;SDS011;2995;-31.998;115.906;2022-09-24T02:28:50;3.33;;;1.57;;
5939;SDS011;2995;-31.998;115.906;2022-09-24T02:31:24;5.37;;;1.37;;
5939;SDS011;2995;-31.998;115.906;2022-09-24T02:33:58;5.63;;;1.30;;
5939;SDS011;2995;-31.998;115.906;2022-09-24T02:36:51;7.40;;;1.83;;
5939;SDS011;2995;-31.998;115.906;2022-09-24T02:39:24;3.03;;;1.27;;
5939;SDS011;2995;-31.998;115.906;2022-09-24T02:41:55;3.93;;;1.37;;
5939;SDS011;2995;-31.998;115.906;2022-09-24T02:44:27;6.43;;;1.80;;
5939;SDS011;2995;-31.998;115.906;2022-09-24T02:47:00;4.27;;;1.33;;
5939;SDS011;2995;-31.998;115.906;2022-09-24T02:49:32;7.67;;;1.80;;
5939;SDS011;2995;-31.998;115.906;2022-09-24T02:52:03;4.90;;;1.30;;
5939;SDS011;2995;-31.998;115.906;2022-09-24T02:54:35;4.20;;;1.40;;
5939;SDS011;2995;-31.998;115.906;2022-09-24T02:57:06;3.30;;;1.73;;
5939;SDS011;2995;-31.998;115.906;2022-09-24T02:59:38;11.97;;;1.40;;
5939;SDS011;2995;-31.998;115.906;2022-09-24T03:02:11;8.03;;;1.20;;
5939;SDS011;2995;-31.998;115.906;2022-09-24T03:04:42;6.60;;;1.67;;
5939;SDS011;2995;-31.998;115.906;2022-09-24T03:07:13;4.10;;;1.43;;
5939;SDS011;2995;-31.998;115.906;2022-09-24T03:09:47;5.03;;;1.47;;
5939;SDS011;2995;-31.998;115.906;2022-09-24T03:12:18;8.03;;;1.67;;
5939;SDS011;2995;-31.998;115.906;2022-09-24T03:14:49;6.37;;;1.60;;
5939;SDS011;2995;-31.998;115.906;2022-09-24T03:17:22;3.77;;;1.50;;
5939;SDS011;2995;-31.998;115.906;2022-09-24T03:19:54;5.60;;;1.50;;
5939;SDS011;2995;-31.998;115.906;2022-09-24T03:22:25;7.37;;;1.80;;
5939;SDS011;2995;-31.998;115.906;2022-09-24T03:24:56;4.50;;;1.40;;
5939;SDS011;2995;-31.998;115.906;2022-09-24T03:27:28;7.73;;;1.97;;
5939;SDS011;2995;-31.998;115.906;2022-09-24T03:29:59;4.70;;;1.57;;
5939;SDS011;2995;-31.998;115.906;2022-09-24T03:32:48;5.57;;;1.80;;
5939;SDS011;2995;-31.998;115.906;2022-09-24T03:35:20;6.43;;;1.30;;
5939;SDS011;2995;-31.998;115.906;2022-09-24T03:37:51;4.43;;;1.40;;
5939;SDS011;2995;-31.998;115.906;2022-09-24T03:40:22;3.53;;;1.50;;
5939;SDS011;2995;-31.998;115.906;2022-09-24T03:42:53;3.77;;;1.50;;
5939;SDS011;2995;-31.998;115.906;2022-09-24T03:45:24;3.13;;;1.30;;
5939;SDS011;2995;-31.998;115.906;2022-09-24T03:47:58;4.30;;;1.50;;
5939;SDS011;2995;-31.998;115.906;2022-09-24T03:50:31;4.13;;;1.20;;
5939;SDS011;2995;-31.998;115.906;2022-09-24T03:53:04;5.57;;;1.40;;
5939;SDS011;2995;-31.998;115.906;2022-09-24T03:55:40;5.70;;;1.37;;
5939;SDS011;2995;-31.998;115.906;2022-09-24T03:58:12;4.60;;;1.23;;
5939;SDS011;2995;-31.998;115.906;2022-09-24T04:00:44;4.77;;;1.53;;
5939;SDS011;2995;-31.998;115.906;2022-09-24T04:03:17;5.20;;;1.50;;
5939;SDS011;2995;-31.998;115.906;2022-09-24T04:05:49;2.53;;;1.00;;
5939;SDS011;2995;-31.998;115.906;2022-09-24T04:08:20;4.70;;;1.33;;
5939;SDS011;2995;-31.998;115.906;2022-09-24T04:10:51;5.47;;;1.60;;
5939;SDS011;2995;-31.998;115.906;2022-09-24T04:13:22;3.83;;;1.57;;
5939;SDS011;2995;-31.998;115.906;2022-09-24T04:15:54;5.57;;;1.57;;
5939;SDS011;2995;-31.998;115.906;2022-09-24T04:18:31;2.90;;;1.20;;
5939;SDS011;2995;-31.998;115.906;2022-09-24T04:21:03;4.30;;;1.23;;
5939;SDS011;2995;-31.998;115.906;2022-09-24T04:23:34;8.97;;;1.93;;
5939;SDS011;2995;-31.998;115.906;2022-09-24T04:26:05;5.17;;;1.50;;
5939;SDS011;2995;-31.998;115.906;2022-09-24T04:28:36;3.83;;;1.60;;
5939;SDS011;2995;-31.998;115.906;2022-09-24T04:31:08;6.13;;;1.50;;
5939;SDS011;2995;-31.998;115.906;2022-09-24T04:33:41;11.60;;;1.80;;
5939;SDS011;2995;-31.998;115.906;2022-09-24T04:36:12;7.53;;;1.70;;
5939;SDS011;2995;-31.998;115.906;2022-09-24T04:38:43;5.13;;;1.37;;
5939;SDS011;2995;-31.998;115.906;2022-09-24T04:41:14;4.00;;;1.40;;
5939;SDS011;2995;-31.998;115.906;2022-09-24T04:43:45;4.00;;;1.40;;
5939;SDS011;2995;-31.998;115.906;2022-09-24T04:46:17;3.57;;;1.43;;
5939;SDS011;2995;-31.998;115.906;2022-09-24T04:48:50;3.67;;;1.17;;
5939;SDS011;2995;-31.998;115.906;2022-09-24T04:51:21;2.30;;;1.20;;
5939;SDS011;2995;-31.998;115.906;2022-09-24T04:53:52;4.33;;;1.40;;
5939;SDS011;2995;-31.998;115.906;2022-09-24T04:56:23;5.90;;;1.40;;
5939;SDS011;2995;-31.998;115.906;2022-09-24T04:58:54;2.77;;;1.40;;
5939;SDS011;2995;-31.998;115.906;2022-09-24T05:01:26;3.63;;;1.20;;
5939;SDS011;2995;-31.998;115.906;2022-09-24T05:03:59;6.23;;;1.50;;
5939;SDS011;2995;-31.998;115.906;2022-09-24T05:06:32;2.67;;;1.10;;
5939;SDS011;2995;-31.998;115.906;2022-09-24T05:09:03;5.13;;;1.40;;
5939;SDS011;2995;-31.998;115.906;2022-09-24T05:11:38;3.53;;;1.40;;
5939;SDS011;2995;-31.998;115.906;2022-09-24T05:14:09;2.30;;;1.33;;
5939;SDS011;2995;-31.998;115.906;2022-09-24T05:16:40;7.20;;;1.43;;
5939;SDS011;2995;-31.998;115.906;2022-09-24T05:19:15;3.60;;;1.20;;
5939;SDS011;2995;-31.998;115.906;2022-09-24T05:21:46;5.00;;;1.60;;
5939;SDS011;2995;-31.998;115.906;2022-09-24T05:24:18;2.43;;;1.27;;
5939;SDS011;2995;-31.998;115.906;2022-09-24T05:26:49;5.23;;;1.20;;
5939;SDS011;2995;-31.998;115.906;2022-09-24T05:29:37;4.93;;;1.63;;
5939;SDS011;2995;-31.998;115.906;2022-09-24T05:32:09;3.37;;;1.30;;
5939;SDS011;2995;-31.998;115.906;2022-09-24T05:34:44;3.47;;;1.33;;
5939;SDS011;2995;-31.998;115.906;2022-09-24T05:37:16;8.50;;;4.30;;
5939;SDS011;2995;-31.998;115.906;2022-09-24T05:39:47;4.13;;;1.90;;
5939;SDS011;2995;-31.998;115.906;2022-09-24T05:42:19;4.40;;;1.20;;
5939;SDS011;2995;-31.998;115.906;2022-09-24T05:44:50;3.70;;;1.07;;
5939;SDS011;2995;-31.998;115.906;2022-09-24T05:47:21;5.83;;;1.40;;
5939;SDS011;2995;-31.998;115.906;2022-09-24T05:49:54;3.50;;;1.10;;
5939;SDS011;2995;-31.998;115.906;2022-09-24T05:52:26;5.27;;;1.43;;
5939;SDS011;2995;-31.998;115.906;2022-09-24T05:54:57;6.10;;;1.30;;
5939;SDS011;2995;-31.998;115.906;2022-09-24T05:57:28;4.77;;;1.90;;
5939;SDS011;2995;-31.998;115.906;2022-09-24T05:59:59;5.60;;;1.20;;
5939;SDS011;2995;-31.998;115.906;2022-09-24T06:02:30;4.90;;;1.47;;
5939;SDS011;2995;-31.998;115.906;2022-09-24T06:05:03;8.97;;;1.70;;
5939;SDS011;2995;-31.998;115.906;2022-09-24T06:07:35;2.87;;;1.20;;
5939;SDS011;2995;-31.998;115.906;2022-09-24T06:10:07;3.33;;;1.40;;
5939;SDS011;2995;-31.998;115.906;2022-09-24T06:12:39;4.17;;;1.30;;
5939;SDS011;2995;-31.998;115.906;2022-09-24T06:15:14;2.83;;;1.23;;
5939;SDS011;2995;-31.998;115.906;2022-09-24T06:17:46;5.23;;;1.70;;
5939;SDS011;2995;-31.998;115.906;2022-09-24T06:20:19;6.60;;;1.60;;
5939;SDS011;2995;-31.998;115.906;2022-09-24T06:22:53;8.23;;;2.40;;
5939;SDS011;2995;-31.998;115.906;2022-09-24T06:25:25;6.23;;;1.60;;
5939;SDS011;2995;-31.998;115.906;2022-09-24T06:27:57;6.57;;;1.93;;
5939;SDS011;2995;-31.998;115.906;2022-09-24T06:30:30;5.17;;;1.70;;
5939;SDS011;2995;-31.998;115.906;2022-09-24T06:33:03;4.53;;;1.60;;
5939;SDS011;2995;-31.998;115.906;2022-09-24T06:35:37;9.47;;;1.57;;
5939;SDS011;2995;-31.998;115.906;2022-09-24T06:38:10;5.97;;;1.60;;
5939;SDS011;2995;-31.998;115.906;2022-09-24T06:40:42;2.63;;;1.13;;
5939;SDS011;2995;-31.998;115.906;2022-09-24T06:43:14;3.17;;;1.20;;
5939;SDS011;2995;-31.998;115.906;2022-09-24T06:45:45;5.27;;;1.50;;
5939;SDS011;2995;-31.998;115.906;2022-09-24T06:48:16;3.37;;;1.20;;
5939;SDS011;2995;-31.998;115.906;2022-09-24T06:50:49;5.60;;;1.50;;
5939;SDS011;2995;-31.998;115.906;2022-09-24T06:53:21;3.67;;;1.20;;
5939;SDS011;2995;-31.998;115.906;2022-09-24T06:55:55;3.30;;;1.50;;
5939;SDS011;2995;-31.998;115.906;2022-09-24T06:58:28;5.00;;;1.70;;
5939;SDS011;2995;-31.998;115.906;2022-09-24T07:01:00;2.27;;;1.20;;
5939;SDS011;2995;-31.998;115.906;2022-09-24T07:03:32;7.90;;;1.70;;
5939;SDS011;2995;-31.998;115.906;2022-09-24T07:06:06;2.23;;;1.10;;
5939;SDS011;2995;-31.998;115.906;2022-09-24T07:08:38;4.20;;;1.40;;
5939;SDS011;2995;-31.998;115.906;2022-09-24T07:11:11;4.33;;;1.30;;
5939;SDS011;2995;-31.998;115.906;2022-09-24T07:13:42;4.10;;;1.40;;
5939;SDS011;2995;-31.998;115.906;2022-09-24T07:16:15;9.63;;;1.60;;
5939;SDS011;2995;-31.998;115.906;2022-09-24T07:18:46;4.93;;;1.60;;
5939;SDS011;2995;-31.998;115.906;2022-09-24T07:21:19;4.63;;;1.33;;
5939;SDS011;2995;-31.998;115.906;2022-09-24T07:23:50;3.60;;;1.30;;
5939;SDS011;2995;-31.998;115.906;2022-09-24T07:26:22;6.50;;;1.63;;
5939;SDS011;2995;-31.998;115.906;2022-09-24T07:28:53;4.73;;;1.73;;
5939;SDS011;2995;-31.998;115.906;2022-09-24T07:31:24;8.20;;;1.40;;
5939;SDS011;2995;-31.998;115.906;2022-09-24T07:33:55;5.80;;;1.50;;
5939;SDS011;2995;-31.998;115.906;2022-09-24T07:36:29;6.63;;;1.40;;
5939;SDS011;2995;-31.998;115.906;2022-09-24T07:39:00;7.60;;;1.60;;
5939;SDS011;2995;-31.998;115.906;2022-09-24T07:41:32;4.07;;;1.23;;
5939;SDS011;2995;-31.998;115.906;2022-09-24T07:44:04;3.43;;;1.13;;
5939;SDS011;2995;-31.998;115.906;2022-09-24T07:46:35;3.23;;;1.40;;
5939;SDS011;2995;-31.998;115.906;2022-09-24T07:49:07;3.37;;;1.40;;
5939;SDS011;2995;-31.998;115.906;2022-09-24T07:51:40;5.30;;;1.73;;
5939;SDS011;2995;-31.998;115.906;2022-09-24T07:54:12;6.10;;;1.63;;
5939;SDS011;2995;-31.998;115.906;2022-09-24T07:56:44;3.37;;;1.13;;
5939;SDS011;2995;-31.998;115.906;2022-09-24T07:59:15;2.83;;;1.17;;
5939;SDS011;2995;-31.998;115.906;2022-09-24T08:01:46;2.40;;;0.97;;
5939;SDS011;2995;-31.998;115.906;2022-09-24T08:04:18;4.50;;;1.00;;
5939;SDS011;2995;-31.998;115.906;2022-09-24T08:06:51;4.43;;;1.27;;
5939;SDS011;2995;-31.998;115.906;2022-09-24T08:09:22;1.90;;;1.20;;
5939;SDS011;2995;-31.998;115.906;2022-09-24T08:11:54;2.60;;;0.97;;
5939;SDS011;2995;-31.998;115.906;2022-09-24T08:14:25;4.10;;;1.30;;
5939;SDS011;2995;-31.998;115.906;2022-09-24T08:16:56;2.33;;;1.17;;
5939;SDS011;2995;-31.998;115.906;2022-09-24T08:19:27;3.30;;;1.37;;
5939;SDS011;2995;-31.998;115.906;2022-09-24T08:22:01;4.27;;;1.30;;
5939;SDS011;2995;-31.998;115.906;2022-09-24T08:24:33;3.43;;;1.60;;
5939;SDS011;2995;-31.998;115.906;2022-09-24T08:27:04;5.57;;;1.40;;
5939;SDS011;2995;-31.998;115.906;2022-09-24T08:29:35;3.37;;;1.10;;
5939;SDS011;2995;-31.998;115.906;2022-09-24T08:32:06;4.50;;;1.13;;
5939;SDS011;2995;-31.998;115.906;2022-09-24T08:34:38;7.30;;;1.53;;
5939;SDS011;2995;-31.998;115.906;2022-09-24T08:37:11;9.60;;;1.50;;
5939;SDS011;2995;-31.998;115.906;2022-09-24T08:39:42;2.73;;;1.20;;
5939;SDS011;2995;-31.998;115.906;2022-09-24T08:42:18;3.43;;;1.10;;
5939;SDS011;2995;-31.998;115.906;2022-09-24T08:45:03;2.03;;;1.00;;
5939;SDS011;2995;-31.998;115.906;2022-09-24T08:47:52;7.50;;;1.40;;
5939;SDS011;2995;-31.998;115.906;2022-09-24T08:50:27;6.70;;;1.60;;
5939;SDS011;2995;-31.998;115.906;2022-09-24T08:53:04;1.93;;;1.10;;
5939;SDS011;2995;-31.998;115.906;2022-09-24T08:55:42;5.13;;;1.50;;
5939;SDS011;2995;-31.998;115.906;2022-09-24T08:58:28;4.53;;;1.57;;
5939;SDS011;2995;-31.998;115.906;2022-09-24T09:01:09;4.23;;;1.17;;
5939;SDS011;2995;-31.998;115.906;2022-09-24T09:03:47;2.50;;;1.17;;
5939;SDS011;2995;-31.998;115.906;2022-09-24T09:09:37;4.10;;;1.20;;
5939;SDS011;2995;-31.998;115.906;2022-09-24T09:12:12;4.23;;;1.10;;
5939;SDS011;2995;-31.998;115.906;2022-09-24T09:14:47;6.20;;;1.53;;
5939;SDS011;2995;-31.998;115.906;2022-09-24T09:17:27;6.17;;;1.43;;
5939;SDS011;2995;-31.998;115.906;2022-09-24T09:20:09;3.70;;;1.30;;
5939;SDS011;2995;-31.998;115.906;2022-09-24T09:22:45;5.20;;;1.53;;
5939;SDS011;2995;-31.998;115.906;2022-09-24T09:25:21;5.03;;;1.40;;
5939;SDS011;2995;-31.998;115.906;2022-09-24T09:27:56;3.70;;;1.40;;
5939;SDS011;2995;-31.998;115.906;2022-09-24T09:30:31;5.00;;;1.53;;
5939;SDS011;2995;-31.998;115.906;2022-09-24T09:33:13;8.10;;;1.70;;
5939;SDS011;2995;-31.998;115.906;2022-09-24T09:35:57;4.93;;;1.53;;
5939;SDS011;2995;-31.998;115.906;2022-09-24T09:38:38;5.63;;;1.37;;
5939;SDS011;2995;-31.998;115.906;2022-09-24T09:41:19;6.10;;;1.70;;
5939;SDS011;2995;-31.998;115.906;2022-09-24T09:43:58;5.50;;;1.50;;
5939;SDS011;2995;-31.998;115.906;2022-09-24T09:46:39;4.10;;;1.70;;
5939;SDS011;2995;-31.998;115.906;2022-09-24T09:49:16;6.10;;;1.80;;
5939;SDS011;2995;-31.998;115.906;2022-09-24T09:51:47;5.53;;;1.50;;
5939;SDS011;2995;-31.998;115.906;2022-09-24T09:54:34;2.73;;;1.40;;
5939;SDS011;2995;-31.998;115.906;2022-09-24T09:57:08;4.80;;;1.67;;
5939;SDS011;2995;-31.998;115.906;2022-09-24T09:59:45;4.00;;;1.33;;
5939;SDS011;2995;-31.998;115.906;2022-09-24T10:02:23;9.63;;;1.50;;
5939;SDS011;2995;-31.998;115.906;2022-09-24T10:04:56;5.73;;;1.43;;
5939;SDS011;2995;-31.998;115.906;2022-09-24T10:07:29;3.97;;;1.23;;
5939;SDS011;2995;-31.998;115.906;2022-09-24T10:10:02;2.63;;;1.30;;
5939;SDS011;2995;-31.998;115.906;2022-09-24T10:12:46;3.23;;;1.50;;
5939;SDS011;2995;-31.998;115.906;2022-09-24T10:15:20;8.10;;;2.00;;
5939;SDS011;2995;-31.998;115.906;2022-09-24T10:17:52;5.33;;;1.83;;
5939;SDS011;2995;-31.998;115.906;2022-09-24T10:20:24;6.20;;;1.50;;
5939;SDS011;2995;-31.998;115.906;2022-09-24T10:22:58;6.03;;;1.70;;
5939;SDS011;2995;-31.998;115.906;2022-09-24T10:25:32;8.57;;;1.80;;
5939;SDS011;2995;-31.998;115.906;2022-09-24T10:28:05;7.37;;;1.50;;
5939;SDS011;2995;-31.998;115.906;2022-09-24T10:30:54;6.03;;;1.50;;
5939;SDS011;2995;-31.998;115.906;2022-09-24T10:33:34;3.53;;;1.73;;
5939;SDS011;2995;-31.998;115.906;2022-09-24T10:36:11;3.80;;;1.40;;
5939;SDS011;2995;-31.998;115.906;2022-09-24T10:38:45;6.53;;;1.33;;
5939;SDS011;2995;-31.998;115.906;2022-09-24T10:41:21;3.40;;;1.93;;
5939;SDS011;2995;-31.998;115.906;2022-09-24T10:43:58;16.77;;;1.70;;
5939;SDS011;2995;-31.998;115.906;2022-09-24T10:46:39;5.57;;;1.97;;
5939;SDS011;2995;-31.998;115.906;2022-09-24T10:49:21;10.70;;;2.60;;
5939;SDS011;2995;-31.998;115.906;2022-09-24T10:52:01;8.40;;;2.30;;
5939;SDS011;2995;-31.998;115.906;2022-09-24T10:54:41;9.37;;;1.70;;
5939;SDS011;2995;-31.998;115.906;2022-09-24T10:57:23;5.83;;;3.30;;
5939;SDS011;2995;-31.998;115.906;2022-09-24T11:00:06;9.10;;;1.93;;
5939;SDS011;2995;-31.998;115.906;2022-09-24T11:02:50;12.90;;;2.20;;
5939;SDS011;2995;-31.998;115.906;2022-09-24T11:05:44;4.40;;;2.33;;
5939;SDS011;2995;-31.998;115.906;2022-09-24T11:08:23;9.20;;;2.40;;
5939;SDS011;2995;-31.998;115.906;2022-09-24T11:13:58;8.40;;;1.80;;
5939;SDS011;2995;-31.998;115.906;2022-09-24T11:16:58;5.97;;;2.13;;
5939;SDS011;2995;-31.998;115.906;2022-09-24T11:19:58;7.97;;;1.80;;
5939;SDS011;2995;-31.998;115.906;2022-09-24T11:22:40;4.13;;;1.60;;
5939;SDS011;2995;-31.998;115.906;2022-09-24T11:25:22;6.13;;;1.80;;
5939;SDS011;2995;-31.998;115.906;2022-09-24T11:28:02;8.20;;;2.83;;
5939;SDS011;2995;-31.998;115.906;2022-09-24T11:30:44;12.40;;;8.03;;
5939;SDS011;2995;-31.998;115.906;2022-09-24T11:33:31;9.73;;;6.40;;
5939;SDS011;2995;-31.998;115.906;2022-09-24T11:36:19;15.03;;;10.10;;
5939;SDS011;2995;-31.998;115.906;2022-09-24T11:39:09;4.53;;;4.03;;
5939;SDS011;2995;-31.998;115.906;2022-09-24T11:41:54;9.00;;;3.70;;
5939;SDS011;2995;-31.998;115.906;2022-09-24T11:44:45;8.63;;;3.73;;
5939;SDS011;2995;-31.998;115.906;2022-09-24T11:47:28;8.37;;;3.00;;
5939;SDS011;2995;-31.998;115.906;2022-09-24T11:50:19;3.43;;;2.13;;
5939;SDS011;2995;-31.998;115.906;2022-09-24T11:53:00;5.23;;;1.97;;
5939;SDS011;2995;-31.998;115.906;2022-09-24T11:55:36;6.53;;;2.30;;
5939;SDS011;2995;-31.998;115.906;2022-09-24T11:58:12;6.33;;;2.43;;
5939;SDS011;2995;-31.998;115.906;2022-09-24T12:00:48;6.60;;;2.80;;
5939;SDS011;2995;-31.998;115.906;2022-09-24T12:03:23;14.33;;;3.90;;
5939;SDS011;2995;-31.998;115.906;2022-09-24T12:06:02;7.00;;;2.90;;
5939;SDS011;2995;-31.998;115.906;2022-09-24T12:08:38;14.10;;;3.90;;
5939;SDS011;2995;-31.998;115.906;2022-09-24T12:11:15;7.57;;;3.80;;
5939;SDS011;2995;-31.998;115.906;2022-09-24T12:13:54;7.47;;;3.20;;
5939;SDS011;2995;-31.998;115.906;2022-09-24T12:16:30;8.60;;;3.43;;
5939;SDS011;2995;-31.998;115.906;2022-09-24T12:19:08;7.30;;;3.17;;
5939;SDS011;2995;-31.998;115.906;2022-09-24T12:21:49;4.47;;;2.80;;
5939;SDS011;2995;-31.998;115.906;2022-09-24T12:24:26;5.30;;;2.00;;
5939;SDS011;2995;-31.998;115.906;2022-09-24T12:27:01;6.00;;;2.47;;
5939;SDS011;2995;-31.998;115.906;2022-09-24T12:29:42;7.80;;;2.73;;
5939;SDS011;2995;-31.998;115.906;2022-09-24T12:32:33;8.13;;;2.70;;
5939;SDS011;2995;-31.998;115.906;2022-09-24T12:35:29;9.53;;;3.23;;
5939;SDS011;2995;-31.998;115.906;2022-09-24T12:38:07;8.37;;;4.13;;
5939;SDS011;2995;-31.998;115.906;2022-09-24T12:44:01;12.77;;;4.70;;
5939;SDS011;2995;-31.998;115.906;2022-09-24T12:46:41;8.40;;;4.27;;
5939;SDS011;2995;-31.998;115.906;2022-09-24T12:49:16;7.17;;;5.03;;
5939;SDS011;2995;-31.998;115.906;2022-09-24T12:51:55;12.03;;;4.93;;
5939;SDS011;2995;-31.998;115.906;2022-09-24T12:54:29;10.83;;;3.80;;
5939;SDS011;2995;-31.998;115.906;2022-09-24T12:57:06;5.77;;;3.90;;
5939;SDS011;2995;-31.998;115.906;2022-09-24T12:59:47;11.83;;;4.20;;
5939;SDS011;2995;-31.998;115.906;2022-09-24T13:02:20;7.60;;;3.90;;
5939;SDS011;2995;-31.998;115.906;2022-09-24T13:05:14;7.90;;;3.57;;
5939;SDS011;2995;-31.998;115.906;2022-09-24T13:07:54;6.93;;;3.80;;
5939;SDS011;2995;-31.998;115.906;2022-09-24T13:10:30;6.70;;;3.80;;
5939;SDS011;2995;-31.998;115.906;2022-09-24T13:13:02;10.40;;;4.97;;
5939;SDS011;2995;-31.998;115.906;2022-09-24T13:15:57;10.60;;;4.57;;
5939;SDS011;2995;-31.998;115.906;2022-09-24T13:18:30;6.50;;;4.93;;
5939;SDS011;2995;-31.998;115.906;2022-09-24T13:21:04;7.50;;;4.00;;
5939;SDS011;2995;-31.998;115.906;2022-09-24T13:23:43;9.10;;;4.23;;
5939;SDS011;2995;-31.998;115.906;2022-09-24T13:26:30;8.13;;;3.53;;
5939;SDS011;2995;-31.998;115.906;2022-09-24T13:29:02;5.40;;;3.10;;
5939;SDS011;2995;-31.998;115.906;2022-09-24T13:31:50;6.83;;;3.63;;
5939;SDS011;2995;-31.998;115.906;2022-09-24T13:34:28;4.60;;;3.50;;
5939;SDS011;2995;-31.998;115.906;2022-09-24T13:37:01;6.40;;;2.97;;
5939;SDS011;2995;-31.998;115.906;2022-09-24T13:39:41;6.53;;;2.90;;
5939;SDS011;2995;-31.998;115.906;2022-09-24T13:42:18;9.43;;;3.53;;
5939;SDS011;2995;-31.998;115.906;2022-09-24T13:44:54;11.80;;;6.53;;
5939;SDS011;2995;-31.998;115.906;2022-09-24T13:47:28;10.10;;;4.83;;
5939;SDS011;2995;-31.998;115.906;2022-09-24T13:50:06;5.50;;;3.00;;
5939;SDS011;2995;-31.998;115.906;2022-09-24T13:52:43;11.43;;;4.80;;
5939;SDS011;2995;-31.998;115.906;2022-09-24T13:55:20;12.33;;;4.30;;
5939;SDS011;2995;-31.998;115.906;2022-09-24T13:57:58;8.03;;;4.20;;
5939;SDS011;2995;-31.998;115.906;2022-09-24T14:00:29;9.20;;;5.07;;
5939;SDS011;2995;-31.998;115.906;2022-09-24T14:03:15;7.87;;;3.30;;
5939;SDS011;2995;-31.998;115.906;2022-09-24T14:05:53;8.13;;;3.70;;
5939;SDS011;2995;-31.998;115.906;2022-09-24T14:08:24;7.77;;;3.60;;
5939;SDS011;2995;-31.998;115.906;2022-09-24T14:11:04;6.63;;;2.80;;
5939;SDS011;2995;-31.998;115.906;2022-09-24T14:13:43;5.80;;;3.70;;
5939;SDS011;2995;-31.998;115.906;2022-09-24T14:16:15;4.63;;;3.20;;
5939;SDS011;2995;-31.998;115.906;2022-09-24T14:18:47;5.20;;;3.13;;
5939;SDS011;2995;-31.998;115.906;2022-09-24T14:21:30;6.73;;;3.30;;
5939;SDS011;2995;-31.998;115.906;2022-09-24T14:24:03;8.23;;;3.60;;
5939;SDS011;2995;-31.998;115.906;2022-09-24T14:26:42;7.03;;;3.70;;
5939;SDS011;2995;-31.998;115.906;2022-09-24T14:29:20;8.23;;;3.20;;
5939;SDS011;2995;-31.998;115.906;2022-09-24T14:31:54;4.50;;;3.10;;
5939;SDS011;2995;-31.998;115.906;2022-09-24T14:34:30;9.10;;;3.03;;
5939;SDS011;2995;-31.998;115.906;2022-09-24T14:37:08;8.90;;;3.90;;
5939;SDS011;2995;-31.998;115.906;2022-09-24T14:39:45;5.40;;;3.63;;
5939;SDS011;2995;-31.998;115.906;2022-09-24T14:42:19;8.40;;;4.67;;
5939;SDS011;2995;-31.998;115.906;2022-09-24T14:44:55;7.93;;;3.63;;
5939;SDS011;2995;-31.998;115.906;2022-09-24T14:47:27;6.60;;;4.33;;
5939;SDS011;2995;-31.998;115.906;2022-09-24T14:49:59;9.03;;;3.50;;
5939;SDS011;2995;-31.998;115.906;2022-09-24T14:52:33;6.20;;;3.90;;
5939;SDS011;2995;-31.998;115.906;2022-09-24T14:55:13;6.60;;;3.27;;
5939;SDS011;2995;-31.998;115.906;2022-09-24T14:57:45;7.47;;;4.20;;
5939;SDS011;2995;-31.998;115.906;2022-09-24T15:00:26;9.40;;;3.87;;
5939;SDS011;2995;-31.998;115.906;2022-09-24T15:03:00;9.50;;;4.27;;
5939;SDS011;2995;-31.998;115.906;2022-09-24T15:05:35;10.77;;;3.90;;
5939;SDS011;2995;-31.998;115.906;2022-09-24T15:08:16;7.47;;;3.97;;
5939;SDS011;2995;-31.998;115.906;2022-09-24T15:10:55;6.70;;;3.53;;
5939;SDS011;2995;-31.998;115.906;2022-09-24T15:13:28;7.30;;;3.37;;
5939;SDS011;2995;-31.998;115.906;2022-09-24T15:16:03;9.73;;;4.20;;
5939;SDS011;2995;-31.998;115.906;2022-09-24T15:18:46;8.17;;;3.50;;
5939;SDS011;2995;-31.998;115.906;2022-09-24T15:21:25;8.80;;;4.70;;
5939;SDS011;2995;-31.998;115.906;2022-09-24T15:23:56;9.30;;;4.60;;
5939;SDS011;2995;-31.998;115.906;2022-09-24T15:26:28;6.63;;;3.70;;
5939;SDS011;2995;-31.998;115.906;2022-09-24T15:29:01;8.20;;;3.83;;
5939;SDS011;2995;-31.998;115.906;2022-09-24T15:31:36;6.77;;;3.90;;